Have a Safe July 4th! 

Flight Track Log - Related Links

Times and Time Zones

All times are in EDT time to prevent confusion due to time zone crossing. See the N865JM flight status page for this flight to view local times or setup timezone preferences in your user account.

Time Position Orientation Groundspeed Altitude Reporting Facility
EDT Latitude Longitude Course Direction KTS MPH feet Rate Location/Type
Mon 07:35:00 PM 26.7672 -80.0000 329° Northwest 242 278 7,100  Level Miami Center
Mon 07:36:01 PM 26.8225 -80.0528 320° Northwest 221 254 10,300 2,682 Climbing Miami Center
Mon 07:37:12 PM 26.8331 -80.1414 278° West 245 282 13,000 2,364 Climbing Miami Center
Mon 07:38:13 PM 26.8550 -80.2725 281° West 315 362 15,500 2,529 Climbing Miami Center
Mon 07:39:00 PM 27.1085 -80.3668 329° Northwest  Level FlightAware Approximate
Mon 07:39:13 PM 26.8947 -80.3644 296° West 329 379 18,100  Level Miami Center
Mon 07:40:13 PM 26.9731 -80.4064 334° Northwest 309 356 20,900 2,300 Climbing Miami Center
Mon 07:41:13 PM 27.0492 -80.4531 331° Northwest 303 349 22,700 1,600 Climbing Miami Center
Mon 07:42:13 PM 27.1314 -80.4975 334° Northwest 309 356 24,100 1,450 Climbing Miami Center
Mon 07:43:13 PM 27.2203 -80.5331 340° North 325 374 25,600 1,311 Climbing Miami Center
Mon 07:44:12 PM 27.3114 -80.5711 340° North 339 390 26,700 1,150 Climbing Miami Center
Mon 07:45:13 PM 27.4064 -80.6092 340° North 353 406 27,900 1,100 Climbing Miami Center
Mon 07:46:12 PM 27.5056 -80.6497 340° North 365 420 28,900 1,000 Climbing Miami Center
Mon 07:47:13 PM 27.6044 -80.6931 339° North 370 426 29,900 992 Climbing Miami Center
Mon 07:48:13 PM 27.7017 -80.7314 341° North 370 426 30,900 1,000 Climbing Miami Center
Mon 07:49:13 PM 27.7944 -80.7697 340° North 370 426 31,900 950 Climbing Miami Center
Mon 07:50:13 PM 27.8917 -80.8083 341° North 376 433 32,800 1,000 Climbing Miami Center
Mon 07:51:13 PM 27.9925 -80.8517 339° North 376 433 33,900 1,050 Climbing Miami Center
Mon 07:52:13 PM 28.0875 -80.8881 341° North 376 433 34,900 950 Climbing Miami Center
Mon 07:53:13 PM 28.1867 -80.9292 340° North 376 433 35,800 850 Climbing Miami Center
Mon 07:54:13 PM 28.2836 -80.9706 339° North 371 427 36,600 450 Climbing Miami Center
Mon 07:55:53 PM 28.4561 -81.0486 338° Northwest 384 442 37,000 150 Climbing Jacksonville Center
Mon 07:56:53 PM 28.5525 -81.0894 340° North 384 442 37,000  Level Jacksonville Center
Mon 07:57:53 PM 28.6492 -81.1300 340° North 379 436 37,000  Level Jacksonville Center
Mon 07:58:53 PM 28.7456 -81.1711 339° North 373 429 37,000  Level Jacksonville Center
Mon 07:59:53 PM 28.8422 -81.2119 340° North 373 429 37,000  Level Jacksonville Center
Mon 08:00:53 PM 28.9386 -81.2508 341° North 373 429 37,000  Level Jacksonville Center
Mon 08:01:53 PM 29.0333 -81.2944 338° Northwest 367 422 37,000  Level Jacksonville Center
Mon 08:02:53 PM 29.1275 -81.3356 339° North 363 418 37,000  Level Jacksonville Center
Mon 08:03:53 PM 29.2261 -81.3722 342° North 362 417 37,000  Level Jacksonville Center
Mon 08:04:53 PM 29.3061 -81.4136 336° Northwest 361 415 37,000  Level Jacksonville Center
Mon 08:05:53 PM 29.4083 -81.4242 355° North 364 419 37,000  Level Jacksonville Center
Mon 08:06:53 PM 29.5108 -81.4322 356° North 364 419 37,000  Level Jacksonville Center
Mon 08:07:53 PM 29.6153 -81.4425 355° North 369 425 37,000  Level Jacksonville Center
Mon 08:08:53 PM 29.7156 -81.4506 356° North 369 425 37,000  Level Jacksonville Center
Mon 08:09:53 PM 29.8178 -81.4467 North 369 425 37,000  Level Jacksonville Center
Mon 08:10:53 PM 29.9175 -81.3997 22° Northeast 364 419 37,000  Level Jacksonville Center
Mon 08:11:53 PM 30.0128 -81.3456 26° Northeast 374 430 37,000  Level Jacksonville Center
Mon 08:12:53 PM 30.1103 -81.2911 26° Northeast 379 436 37,000  Level Jacksonville Center
Mon 08:13:53 PM 30.2078 -81.2342 27° Northeast 384 442 37,000  Level Jacksonville Center
Mon 08:14:53 PM 30.3050 -81.1769 27° Northeast 384 442 37,000  Level Jacksonville Center
Mon 08:15:53 PM 30.4150 -81.1150 26° Northeast 384 442 37,000  Level Jacksonville Center
Mon 08:16:53 PM 30.5122 -81.0625 25° Northeast 384 442 37,000  Level Jacksonville Center
Mon 08:17:53 PM 30.6033 -81.0075 27° Northeast 379 436 37,000  Level Jacksonville Center
Mon 08:18:53 PM 30.7006 -80.9525 26° Northeast 379 436 37,000  Level Jacksonville Center
Mon 08:19:52 PM 30.7958 -80.8975 26° Northeast 379 436 37,000  Level Jacksonville Center
Mon 08:20:52 PM 30.8931 -80.8397 27° Northeast 379 436 37,000  Level Jacksonville Center
Mon 08:21:53 PM 30.9903 -80.7842 26° Northeast 379 436 37,000  Level Jacksonville Center
Mon 08:22:53 PM 31.0875 -80.7286 27° Northeast 379 436 37,000  Level Jacksonville Center
Mon 08:23:00 PM 31.0968 -80.7197 27° Northeast  Level FlightAware Approximate
Mon 08:23:53 PM 31.1825 -80.6731 27° Northeast 379 436 37,000  Level Jacksonville Center
Mon 08:24:53 PM 31.2817 -80.6172 26° Northeast 379 436 37,000  Level Jacksonville Center
Mon 08:25:53 PM 31.3747 -80.5589 28° Northeast 379 436 37,000  Level Jacksonville Center
Mon 08:27:00 PM 31.4808 -80.4931 28° Northeast  Level FlightAware Approximate
Mon 08:27:53 PM 31.5689 -80.4469 28° Northeast 384 442 37,000  Level Jacksonville Center
Mon 08:28:53 PM 31.6636 -80.3883 28° Northeast 378 435 37,000  Level Jacksonville Center
Mon 08:29:52 PM 31.7606 -80.3294 27° Northeast 378 435 37,000  Level Jacksonville Center
Mon 08:30:53 PM 31.8556 -80.2756 26° Northeast 378 435 37,000  Level Jacksonville Center
Mon 08:31:53 PM 31.9503 -80.2164 28° Northeast 384 442 37,000  Level Jacksonville Center
Mon 08:32:53 PM 32.0453 -80.1597 27° Northeast 385 443 37,000  Level Jacksonville Center
Mon 08:33:53 PM 32.1400 -80.1031 27° Northeast 378 435 37,000  Level Jacksonville Center
Mon 08:34:00 PM 32.1449 -80.0771 28° Northeast  Level FlightAware Approximate
Mon 08:34:53 PM 32.2328 -80.0486 26° Northeast 371 427 37,000  Level Jacksonville Center
Mon 08:35:00 PM 32.2396 -80.0171 28° Northeast  Level FlightAware Approximate
Mon 08:35:53 PM 32.3275 -79.9892 28° Northeast 371 427 37,000  Level Jacksonville Center
Mon 08:36:53 PM 32.4200 -79.9344 27° Northeast 371 427 37,000  Level Jacksonville Center
Mon 08:37:52 PM 32.5147 -79.8772 27° Northeast 371 427 37,000  Level Jacksonville Center
Mon 08:38:53 PM 32.6028 -79.8053 35° Northeast 371 427 37,000  Level Jacksonville Center
Mon 08:39:53 PM 32.6931 -79.7381 32° Northeast 376 433 37,000  Level Jacksonville Center
Mon 08:40:52 PM 32.7831 -79.6681 33° Northeast 381 438 37,000  Level Jacksonville Center
Mon 08:41:53 PM 32.8711 -79.5983 34° Northeast 381 438 37,000  Level Jacksonville Center
Mon 08:42:52 PM 32.9611 -79.5281 33° Northeast 381 438 37,000  Level Jacksonville Center
Mon 08:43:53 PM 33.0469 -79.4603 33° Northeast 381 438 37,000  Level Jacksonville Center
Mon 08:44:53 PM 33.1344 -79.3875 35° Northeast 381 438 37,000  Level Jacksonville Center
Mon 08:45:52 PM 33.2244 -79.3194 32° Northeast 381 438 37,000  Level Jacksonville Center
Mon 08:46:53 PM 33.3081 -79.2517 34° Northeast 376 433 37,000  Level Jacksonville Center
Mon 08:47:53 PM 33.3978 -79.1806 33° Northeast 376 433 37,000  Level Jacksonville Center
Mon 08:48:53 PM 33.4794 -79.1175 33° Northeast 376 433 37,000  Level Jacksonville Center
Mon 08:49:52 PM 33.5669 -79.0464 34° Northeast 364 419 37,000  Level Jacksonville Center
Mon 08:50:52 PM 33.6547 -78.9778 33° Northeast 364 419 37,000  Level Jacksonville Center
Mon 08:51:53 PM 33.7422 -78.9064 34° Northeast 369 425 37,000  Level Jacksonville Center
Mon 08:54:08 PM 33.9339 -78.7531 34° Northeast 375 432 37,000  Level Washington Center
Mon 08:55:08 PM 34.0233 -78.6839 33° Northeast 375 432 37,000  Level Washington Center
Mon 08:56:09 PM 34.1108 -78.6117 34° Northeast 375 432 37,000  Level Washington Center
Mon 08:57:07 PM 34.1981 -78.5397 34° Northeast 375 432 37,000  Level Washington Center
Mon 08:58:08 PM 34.2875 -78.4675 34° Northeast 380 437 37,000  Level Washington Center
Mon 08:59:09 PM 34.3747 -78.3950 34° Northeast 380 437 37,000  Level Washington Center
Mon 09:00:07 PM 34.4661 -78.3225 33° Northeast 380 437 37,000  Level Washington Center
Mon 09:01:07 PM 34.5556 -78.2475 35° Northeast 380 437 37,000  Level Washington Center
Mon 09:02:08 PM 34.6489 -78.1722 34° Northeast 385 443 37,000  Level Washington Center
Mon 09:03:08 PM 34.7275 -78.1039 36° Northeast 391 450 37,000  Level Washington Center
Mon 09:04:09 PM 34.8208 -78.0283 34° Northeast 391 450 37,000  Level Washington Center
Mon 09:05:10 PM 34.9122 -77.9450 37° Northeast 391 450 37,000  Level Washington Center
Mon 09:06:07 PM 35.0075 -77.8742 31° Northeast 391 450 37,000  Level Washington Center
Mon 09:07:08 PM 35.1050 -77.8008 32° Northeast 403 464 37,000  Level Washington Center
Mon 09:08:08 PM 35.2022 -77.7297 31° Northeast 403 464 37,000  Level Washington Center
Mon 09:09:07 PM 35.2994 -77.6561 32° Northeast 403 464 37,000  Level Washington Center
Mon 09:10:09 PM 35.4094 -77.5697 33° Northeast 415 478 37,000  Level Washington Center
Mon 09:11:07 PM 35.5086 -77.4956 31° Northeast 415 478 37,000  Level Washington Center
Mon 09:12:08 PM 35.6100 -77.4186 32° Northeast 420 483 37,000  Level Washington Center
Mon 09:13:08 PM 35.7092 -77.3417 32° Northeast 420 483 37,000  Level Washington Center
Mon 09:14:08 PM 35.8106 -77.2644 32° Northeast 420 483 37,000  Level Washington Center
Mon 09:15:09 PM 35.9117 -77.1847 33° Northeast 420 483 37,000  Level Washington Center
Mon 09:16:09 PM 36.0089 -77.1069 33° Northeast 420 483 37,000  Level Washington Center
Mon 09:17:08 PM 36.1119 -77.0292 31° Northeast 420 483 37,000  Level Washington Center
Mon 09:18:09 PM 36.2150 -76.9486 32° Northeast 425 489 37,000  Level Washington Center
Mon 09:19:07 PM 36.3183 -76.8681 32° Northeast 430 495 37,000  Level Washington Center
Mon 09:20:07 PM 36.4214 -76.7869 32° Northeast 435 501 37,000  Level Washington Center
Mon 09:21:08 PM 36.5139 -76.7186 31° Northeast 435 501 37,000  Level Washington Center
Mon 09:22:08 PM 36.6167 -76.6347 33° Northeast 435 501 37,000  Level Washington Center
Mon 09:23:08 PM 36.7322 -76.5406 33° Northeast 435 501 37,000  Level Washington Center
Mon 09:24:09 PM 36.8331 -76.4586 33° Northeast 435 501 37,000  Level Washington Center
Mon 09:25:07 PM 36.9381 -76.3767 32° Northeast 440 506 37,000  Level Washington Center
Mon 09:26:09 PM 37.0386 -76.2917 34° Northeast 435 501 37,000  Level Washington Center
Mon 09:27:09 PM 37.1456 -76.2067 32° Northeast 435 501 37,000  Level Washington Center
Mon 09:28:08 PM 37.2458 -76.1372 29° Northeast 440 506 37,000  Level Washington Center
Mon 09:29:09 PM 37.3483 -76.0517 34° Northeast 445 512 37,000  Level Washington Center
Mon 09:30:07 PM 37.4531 -75.9686 32° Northeast 445 512 37,000  Level Washington Center
Mon 09:31:08 PM 37.5556 -75.8825 34° Northeast 439 505 37,000  Level Washington Center
Mon 09:32:08 PM 37.6600 -75.7964 33° Northeast 439 505 37,000  Level Washington Center
Mon 09:33:07 PM 37.7622 -75.7153 32° Northeast 439 505 37,000  Level Washington Center
Mon 09:34:09 PM 37.8644 -75.6261 35° Northeast 434 499 37,000  Level Washington Center
Mon 09:35:10 PM 37.9686 -75.5444 32° Northeast 434 499 37,000  Level Washington Center
Mon 09:36:07 PM 38.0750 -75.4625 31° Northeast 434 499 37,000  Level Washington Center
Mon 09:37:08 PM 38.1833 -75.3883 28° Northeast 434 499 37,000  Level Washington Center
Mon 09:38:07 PM 38.2958 -75.3192 26° Northeast 434 499 37,000  Level Washington Center
Mon 09:39:08 PM 38.4042 -75.2500 27° Northeast 434 499 37,000  Level Washington Center
Mon 09:40:08 PM 38.5144 -75.1806 26° Northeast 434 499 37,000  Level Washington Center
Mon 09:41:09 PM 38.6244 -75.1028 29° Northeast 434 499 37,000  Level Washington Center
Mon 09:42:07 PM 38.7369 -75.0381 24° Northeast 434 499 37,000 -50 Level Washington Center
Mon 09:43:08 PM 38.8469 -74.9653 27° Northeast 439 505 36,900 -738 Descending Washington Center
Mon 09:44:09 PM 38.9592 -74.8922 27° Northeast 439 505 35,500 -1,513 Descending Washington Center
Mon 09:45:07 PM 39.0711 -74.8189 27° Northeast 444 511 33,900 -1,627 Descending Washington Center
Mon 09:46:07 PM 39.1728 -74.7242 36° Northeast 449 517 32,300 -1,750 Descending Washington Center
Mon 09:47:07 PM 39.2700 -74.6211 39° Northeast 449 517 30,400 -1,950 Descending Washington Center
Mon 09:48:07 PM 39.3692 -74.5206 38° Northeast 449 517 28,400 -2,057 Descending Washington Center
Mon 09:50:02 PM 39.5533 -74.3275 39° Northeast 440 506 24,400 -1,509 Descending New York Center
Mon 09:51:02 PM 39.6439 -74.2325 39° Northeast 427 491 24,000 -250 Descending New York Center
Mon 09:52:02 PM 39.7342 -74.1369 39° Northeast 427 491 23,900 -800 Descending New York Center
Mon 09:53:02 PM 39.8286 -74.0389 39° Northeast 422 486 22,400 -1,500 Descending New York Center
Mon 09:54:02 PM 39.9189 -73.9431 39° Northeast 422 486 20,900 -1,500 Descending New York Center
Mon 09:55:02 PM 40.0069 -73.8467 40° Northeast 416 479 19,400 -1,176 Descending New York Center
Mon 09:57:26 PM 40.2081 -73.6356 39° Northeast 386 444 16,900 -661 Descending Boston Center
Mon 09:58:40 PM 40.3167 -73.5167 40° Northeast 390 449 17,000 45 Climbing New York TRACON
Mon 09:59:40 PM 40.4167 -73.4500 27° Northeast 391 450 17,000  Level New York TRACON
Mon 10:00:40 PM 40.5167 -73.4000 21° North 390 449 17,000 -750 Level New York TRACON
Mon 10:01:40 PM 40.6167 -73.3667 14° North 386 444 15,500 -1,050 Descending New York TRACON
Mon 10:02:40 PM 40.7167 -73.3333 14° North 373 429 14,900 -400 Descending New York TRACON
Mon 10:03:40 PM 40.8000 -73.2833 24° Northeast 320 368 14,700 -750 Descending New York TRACON
Mon 10:04:40 PM 40.8500 -73.1833 57° Northeast 318 366 13,400 -1,476 Descending New York TRACON
Mon 10:05:46 PM 40.9000 -73.0833 56° Northeast 308 354 11,600 -1,810 Descending New York TRACON
Mon 10:06:46 PM 40.9500 -73.0167 45° Northeast 281 323 9,600 -2,000 Descending New York TRACON
Mon 10:07:40 PM 41.0167 -73.0500 339° North 273 314 7,800 -2,050 Descending New York TRACON
Mon 10:08:46 PM 41.0667 -73.1333 309° West 272 313 5,500 -1,700 Descending New York TRACON
Mon 10:09:40 PM 41.0833 -73.2167 285° West 257 296 4,400 -789 Descending New York TRACON
Mon 10:10:40 PM 41.1167 -73.3000 298° West 254 292 4,000 -200 Descending New York TRACON
Mon 10:11:40 PM 41.1333 -73.3833 285° West 236 272 4,000 -48 Level New York TRACON
Mon 10:12:46 PM 41.1500 -73.4833 283° West 233 268 3,900 -476 Descending New York TRACON
Mon 10:13:46 PM 41.1667 -73.5500 288° West 209 241 3,000 -600 Descending New York TRACON
Mon 10:14:46 PM 41.1667 -73.6167 270° West 195 224 2,700 -500 Descending New York TRACON
Mon 10:15:46 PM 41.1667 -73.7000 270° West 186 214 2,000 -350 Descending New York TRACON
Mon 10:16:46 PM 41.1667 -73.7667 270° West 177 204 2,000 -95 Level New York TRACON
Mon 10:17:52 PM 41.1333 -73.7667 180° South 151 174 1,800 -400 Descending New York TRACON
Mon 10:18:46 PM 41.1000 -73.7333 143° Southeast 135 155 1,200 -632 Descending New York TRACON
Mon 10:19:46 PM 41.0833 -73.7167 143° Southeast 125 144 600 -600 Descending New York TRACON

Login

Don't have an account? Register now (free) for customized features, flight alerts, and more!